Time;durP1;ratioP1;P1;durP2;ratioP2;P2;SDS_P1;SDS_P2;PMS_P1;PMS_P2;Temp;Humidity;BMP_temperature;BMP_pressure;BME280_temperature;BME280_humidity;BME280_pressure;Samples;Min_cycle;Max_cycle;Signal;HPM_P1;HPM_P2
2022/10/25 00:01:45;;;;;;;19.48;12.82;;;12.20;99.90;;;;;;5056920;28;20048;-49
2022/10/25 00:04:11;;;;;;;17.08;13.40;;;12.20;99.90;;;;;;5053922;28;20110;-52
2022/10/25 00:06:37;;;;;;;19.13;13.52;;;12.30;99.90;;;;;;5059499;28;20040;-48
2022/10/25 00:09:02;;;;;;;25.80;14.23;;;12.30;99.90;;;;;;5058631;28;20041;-49
2022/10/25 00:11:29;;;;;;;20.48;13.90;;;12.40;99.90;;;;;;5062777;28;20071;-52
2022/10/25 00:13:57;;;;;;;24.00;14.03;;;12.40;99.90;;;;;;5055864;28;20510;-51
2022/10/25 00:16:29;;;;;;;21.83;14.25;;;12.40;99.90;;;;;;5054998;28;20131;-47
2022/10/25 00:18:55;;;;;;;21.63;13.90;;;12.40;99.90;;;;;;5051658;28;20071;-49
2022/10/25 00:21:21;;;;;;;20.45;14.32;;;12.40;99.90;;;;;;5057372;28;20627;-47
2022/10/25 00:23:47;;;;;;;18.80;14.35;;;12.30;99.90;;;;;;5059145;28;20054;-48
2022/10/25 00:26:13;;;;;;;21.35;14.10;;;12.30;99.90;;;;;;5058419;28;20037;-50
2022/10/25 00:28:39;;;;;;;18.67;14.55;;;12.30;99.90;;;;;;5052674;28;20041;-50
2022/10/25 00:31:08;;;;;;;19.52;13.95;;;12.20;99.90;;;;;;5059607;28;20052;-49
2022/10/25 00:33:35;;;;;;;23.95;14.73;;;12.20;99.90;;;;;;5089218;22;20052;-88
2022/10/25 00:36:06;;;;;;;21.55;13.68;;;12.10;99.90;;;;;;5041317;28;20118;-87
2022/10/25 00:38:32;;;;;;;22.90;14.65;;;12.20;99.90;;;;;;5060508;28;20072;-87
2022/10/25 00:40:58;;;;;;;19.90;14.10;;;12.10;99.90;;;;;;5053410;28;20745;-86
2022/10/25 00:43:34;;;;;;;20.15;14.13;;;12.10;99.90;;;;;;5056288;28;20053;-87
2022/10/25 00:46:05;;;;;;;18.63;14.50;;;12.10;99.90;;;;;;5062285;28;20491;-87
2022/10/25 00:48:33;;;;;;;25.88;14.43;;;12.00;99.90;;;;;;5057451;28;20092;-87
2022/10/25 00:50:59;;;;;;;20.48;14.48;;;12.00;99.90;;;;;;5042635;28;21251;-88
2022/10/25 00:53:28;;;;;;;18.10;13.70;;;12.00;99.90;;;;;;5057127;28;20041;-88
2022/10/25 00:56:17;;;;;;;16.50;12.52;;;12.10;99.90;;;;;;5057831;28;20052;-88
2022/10/25 00:58:46;;;;;;;17.40;12.18;;;12.20;99.90;;;;;;5059342;28;20054;-88
2022/10/25 01:01:13;;;;;;;17.27;11.88;;;12.20;99.90;;;;;;5045038;28;20040;-88
2022/10/25 01:03:41;;;;;;;19.42;11.43;;;12.10;99.90;;;;;;5041970;28;20066;-89
2022/10/25 01:06:15;;;;;;;17.92;10.30;;;12.20;99.90;;;;;;5061134;28;20094;-88
2022/10/25 01:08:42;;;;;;;14.52;10.35;;;12.10;99.90;;;;;;5067196;28;20047;-88
2022/10/25 01:11:08;;;;;;;15.18;10.23;;;12.00;99.90;;;;;;5046233;28;21480;-89
2022/10/25 01:13:35;;;;;;;19.05;10.18;;;12.00;99.90;;;;;;5067808;28;20516;-89
2022/10/25 01:16:51;;;;;;;14.77;9.37;;;12.10;99.90;;;;;;5063999;28;20036;-89
2022/10/25 01:19:41;;;;;;;19.27;9.35;;;12.00;99.90;;;;;;4980351;28;20300;-87
2022/10/25 01:22:35;;;;;;;18.00;9.88;;;12.00;99.90;;;;;;5013451;28;20124;-87
2022/10/25 01:25:20;;;;;;;15.45;9.20;;;12.00;99.90;;;;;;4995188;28;20073;-87
2022/10/25 01:28:07;;;;;;;16.00;9.20;;;12.00;99.90;;;;;;4991299;28;20041;-87
2022/10/25 01:30:58;;;;;;;18.33;9.45;;;11.90;99.90;;;;;;4991359;28;20038;-87
2022/10/25 01:33:33;;;;;;;22.02;8.85;;;11.90;99.90;;;;;;5010330;28;20041;-87
2022/10/25 01:36:11;;;;;;;15.52;9.65;;;11.90;99.90;;;;;;4999624;28;20041;-87
2022/10/25 01:38:54;;;;;;;13.38;8.05;;;11.80;99.90;;;;;;5012565;28;20051;-87
2022/10/25 01:41:29;;;;;;;16.00;9.40;;;11.90;99.90;;;;;;4978731;28;20060;-87
2022/10/25 01:44:25;;;;;;;16.40;9.13;;;11.80;99.90;;;;;;4999296;28;20038;-87
2022/10/25 01:47:02;;;;;;;16.70;9.80;;;11.80;99.90;;;;;;5014238;28;20081;-87
2022/10/25 01:49:49;;;;;;;19.00;11.20;;;11.80;99.90;;;;;;4989348;28;20124;-86
2022/10/25 01:52:21;;;;;;;15.07;10.68;;;11.80;99.90;;;;;;5014195;28;20033;-87
2022/10/25 01:54:48;;;;;;;19.35;11.73;;;11.80;99.90;;;;;;5052670;28;20663;-87
2022/10/25 01:57:32;;;;;;;22.60;13.65;;;11.80;99.90;;;;;;5038579;28;20041;-87
2022/10/25 02:00:06;;;;;;;20.15;13.52;;;11.80;99.90;;;;;;5053520;28;20115;-87
2022/10/25 02:02:52;;;;;;;20.55;14.00;;;11.90;99.90;;;;;;5073649;28;20060;-87
2022/10/25 02:05:28;;;;;;;20.40;14.05;;;11.90;99.90;;;;;;5063460;28;20047;-87
2022/10/25 02:08:35;;;;;;;25.48;14.73;;;11.90;99.90;;;;;;5065959;28;20040;-88
2022/10/25 02:11:05;;;;;;;18.77;14.55;;;11.90;99.90;;;;;;5058314;28;20044;-87
2022/10/25 02:13:46;;;;;;;21.58;15.15;;;12.00;99.90;;;;;;5056274;28;20439;-88
2022/10/25 02:16:17;;;;;;;22.98;15.73;;;12.10;99.90;;;;;;5054605;28;20037;-88
2022/10/25 02:18:47;;;;;;;25.80;15.60;;;12.00;99.90;;;;;;5057987;28;20365;-88
2022/10/25 02:21:15;;;;;;;25.00;16.35;;;12.10;99.90;;;;;;5056543;28;20091;-87
2022/10/25 02:23:41;;;;;;;18.38;15.20;;;12.10;99.90;;;;;;5039232;28;20716;-87
2022/10/25 02:26:09;;;;;;;22.15;15.30;;;12.10;99.90;;;;;;5055599;28;20040;-88
2022/10/25 02:28:37;;;;;;;;;;;12.10;99.90;;;;;;5054080;28;20041;-88
2022/10/25 02:31:05;;;;;;;23.95;16.42;;;12.20;99.90;;;;;;5040190;28;19962;-87
2022/10/25 02:33:30;;;;;;;;;;;12.20;99.90;;;;;;5059065;28;20047;-87
2022/10/25 02:36:23;;;;;;;23.85;14.98;;;12.20;99.90;;;;;;5056187;28;19932;-87
2022/10/25 02:38:50;;;;;;;25.13;15.98;;;12.30;99.90;;;;;;5054246;28;20404;-87
2022/10/25 02:41:17;;;;;;;23.15;16.50;;;12.30;99.90;;;;;;5059829;28;21396;-87
2022/10/25 02:43:42;;;;;;;24.63;15.20;;;12.30;99.90;;;;;;5056090;28;20111;-88
2022/10/25 02:46:11;;;;;;;20.77;15.48;;;12.30;99.90;;;;;;5053801;28;20316;-88
2022/10/25 02:48:37;;;;;;;22.13;15.30;;;12.40;99.90;;;;;;5056699;28;20075;-89
2022/10/25 02:51:04;;;;;;;22.83;15.75;;;12.40;99.90;;;;;;5060836;28;20177;-89
2022/10/25 02:53:31;;;;;;;22.42;14.80;;;12.30;99.90;;;;;;5052562;28;20049;-89
2022/10/25 02:56:06;;;;;;;27.48;16.02;;;12.30;99.90;;;;;;5053020;28;20045;-89
2022/10/25 02:58:34;;;;;;;24.55;15.07;;;12.30;99.90;;;;;;5059572;28;20047;-89
2022/10/25 03:01:00;;;;;;;20.92;14.88;;;12.30;99.90;;;;;;5076388;28;20380;-89
2022/10/25 03:03:27;;;;;;;25.80;14.38;;;12.20;99.90;;;;;;5060895;28;20040;-88
2022/10/25 03:05:53;;;;;;;23.20;14.55;;;12.30;99.90;;;;;;5061662;28;20044;-89
2022/10/25 03:08:19;;;;;;;18.17;13.98;;;12.10;99.90;;;;;;5059184;28;20050;-89
2022/10/25 03:10:45;;;;;;;23.05;15.15;;;12.20;99.90;;;;;;5062146;28;20033;-89
2022/10/25 03:13:11;;;;;;;22.33;14.93;;;12.20;99.90;;;;;;5060812;28;20064;-87
2022/10/25 03:15:36;;;;;;;19.45;13.95;;;12.20;99.90;;;;;;5060719;28;20571;-89
2022/10/25 03:18:02;;;;;;;22.52;15.00;;;12.30;99.90;;;;;;5061937;28;20068;-88
2022/10/25 03:20:28;;;;;;;23.15;15.20;;;12.20;99.90;;;;;;5041875;28;20048;-89
2022/10/25 03:22:53;;;;;;;21.85;14.70;;;12.30;99.90;;;;;;5061490;28;20393;-89
2022/10/25 03:25:19;;;;;;;21.95;14.48;;;12.20;99.90;;;;;;5059953;28;20044;-89
2022/10/25 03:27:44;;;;;;;23.63;14.27;;;12.30;99.90;;;;;;5058689;28;20098;-89
2022/10/25 03:30:13;;;;;;;21.90;14.82;;;12.20;99.90;;;;;;5061639;28;20094;-88
2022/10/25 03:32:39;;;;;;;24.90;15.27;;;12.20;99.90;;;;;;5061341;28;20051;-89
2022/10/25 03:35:05;;;;;;;25.80;14.90;;;12.30;99.90;;;;;;5061877;28;20123;-89
2022/10/25 03:37:31;;;;;;;22.02;14.65;;;12.30;99.90;;;;;;5042578;28;20101;-88
2022/10/25 03:39:56;;;;;;;21.20;14.48;;;12.30;99.90;;;;;;5062096;28;20435;-88
2022/10/25 03:42:22;;;;;;;32.83;15.23;;;12.30;99.90;;;;;;5061247;28;20050;-89
2022/10/25 03:44:47;;;;;;;21.88;15.05;;;12.40;99.90;;;;;;5063782;28;20040;-88
2022/10/25 03:47:13;;;;;;;24.80;15.20;;;12.40;99.90;;;;;;5047731;28;20202;-88
2022/10/25 03:49:39;;;;;;;21.83;15.27;;;12.50;99.90;;;;;;5069000;28;20060;-88
2022/10/25 03:52:06;;;;;;;28.13;15.43;;;12.60;99.90;;;;;;5064453;28;20136;-88
2022/10/25 03:54:32;;;;;;;26.02;15.75;;;12.60;99.90;;;;;;5077002;28;20267;-87
2022/10/25 03:56:58;;;;;;;21.98;14.05;;;12.60;99.90;;;;;;5059246;28;20043;-87
2022/10/25 03:59:23;;;;;;;26.58;14.35;;;12.60;99.90;;;;;;5061193;28;20056;-88
2022/10/25 04:01:49;;;;;;;20.80;14.85;;;12.60;99.90;;;;;;5061835;28;20086;-87
2022/10/25 04:04:15;;;;;;;34.45;16.15;;;12.60;99.90;;;;;;5062112;28;20400;-87
2022/10/25 04:06:41;;;;;;;28.25;14.88;;;12.70;99.90;;;;;;5040357;28;20579;-87
2022/10/25 04:09:06;;;;;;;18.48;14.27;;;12.70;99.90;;;;;;5061928;28;20111;-88
2022/10/25 04:11:32;;;;;;;20.20;14.35;;;12.70;99.90;;;;;;5059872;28;20036;-87
2022/10/25 04:13:58;;;;;;;20.67;14.73;;;12.80;99.90;;;;;;5056300;28;20473;-87
2022/10/25 04:16:25;;;;;;;23.02;14.35;;;12.80;99.90;;;;;;5057920;28;20032;-88
2022/10/25 04:18:52;;;;;;;24.23;14.77;;;12.80;99.90;;;;;;5056538;28;20562;-88
2022/10/25 04:21:19;;;;;;;22.20;14.25;;;12.90;99.90;;;;;;5057523;28;20060;-88
2022/10/25 04:23:44;;;;;;;23.90;13.40;;;12.80;99.90;;;;;;5039393;28;20036;-88
2022/10/25 04:26:13;;;;;;;17.15;13.07;;;12.90;99.90;;;;;;5054208;28;20039;-88
2022/10/25 04:28:38;;;;;;;22.80;13.52;;;12.90;99.90;;;;;;5039119;28;20037;-87
2022/10/25 04:31:04;;;;;;;21.83;13.32;;;12.90;99.90;;;;;;5057351;28;20040;-88
2022/10/25 04:33:30;;;;;;;20.08;13.80;;;12.90;99.90;;;;;;5052335;28;20055;-87
2022/10/25 04:35:56;;;;;;;23.48;12.98;;;12.90;99.90;;;;;;5056101;28;20049;-87
2022/10/25 04:38:23;;;;;;;22.42;13.02;;;12.90;99.90;;;;;;5053224;28;21418;-87
2022/10/25 04:40:56;;;;;;;23.15;12.98;;;12.90;99.90;;;;;;5055139;28;20086;-87
2022/10/25 04:43:22;;;;;;;23.88;14.25;;;12.90;99.90;;;;;;5061233;28;20036;-87
2022/10/25 04:45:48;;;;;;;19.80;12.90;;;12.80;99.90;;;;;;5066178;28;20040;-87
2022/10/25 04:48:14;;;;;;;24.20;13.18;;;12.90;99.90;;;;;;5065046;28;20039;-87
2022/10/25 04:50:40;;;;;;;24.70;12.90;;;12.80;99.90;;;;;;5063033;28;20481;-88
2022/10/25 04:53:05;;;;;;;28.60;12.63;;;12.80;99.90;;;;;;5036120;28;20040;-88
2022/10/25 04:55:31;;;;;;;24.08;12.93;;;12.80;99.90;;;;;;5041828;28;20044;-88
2022/10/25 04:57:56;;;;;;;23.13;13.10;;;12.70;99.90;;;;;;5060884;28;20040;-87
2022/10/25 05:00:23;;;;;;;24.10;12.65;;;12.60;99.90;;;;;;5062138;28;20345;-88
2022/10/25 05:02:53;;;;;;;21.08;12.30;;;12.60;99.90;;;;;;5042262;28;20033;-88
2022/10/25 05:05:20;;;;;;;22.00;12.38;;;12.50;99.90;;;;;;5056533;28;20067;-87
2022/10/25 05:07:46;;;;;;;21.40;12.98;;;12.50;99.90;;;;;;5054970;28;20032;-86
2022/10/25 05:10:11;;;;;;;22.45;12.82;;;12.50;99.90;;;;;;5056187;28;20257;-87
2022/10/25 05:12:37;;;;;;;21.40;11.52;;;12.40;99.90;;;;;;5056796;28;20043;-88
2022/10/25 05:15:04;;;;;;;19.63;11.88;;;12.40;99.90;;;;;;5039178;28;20044;-88
2022/10/25 05:17:30;;;;;;;27.13;11.87;;;12.40;99.90;;;;;;5055975;28;20040;-87
2022/10/25 05:19:56;;;;;;;22.42;11.13;;;12.30;99.90;;;;;;5057165;28;20042;-88
2022/10/25 05:22:22;;;;;;;20.48;11.18;;;12.30;99.90;;;;;;5057031;28;20072;-88
2022/10/25 05:24:47;;;;;;;21.48;11.98;;;12.20;99.90;;;;;;5056221;28;20550;-90
2022/10/25 05:27:13;;;;;;;19.30;11.25;;;12.20;99.90;;;;;;5059561;28;20069;-89
2022/10/25 05:29:41;;;;;;;17.33;10.90;;;12.20;99.90;;;;;;5057504;28;20051;-89
2022/10/25 05:32:07;;;;;;;;;;;12.30;99.90;;;;;;5059101;28;20075;-89
2022/10/25 05:34:33;;;;;;;20.45;11.20;;;12.30;99.90;;;;;;5058909;28;19978;-90
2022/10/25 05:36:59;;;;;;;22.38;11.07;;;12.20;99.90;;;;;;5061688;28;20071;-90
2022/10/25 05:39:24;;;;;;;24.92;11.40;;;12.30;99.90;;;;;;5062166;28;20066;-88
2022/10/25 05:41:50;;;;;;;18.20;10.40;;;12.20;99.90;;;;;;5064850;28;20045;-88
2022/10/25 05:44:16;;;;;;;16.33;10.25;;;12.10;99.90;;;;;;5065286;28;20438;-88
2022/10/25 05:46:42;;;;;;;25.38;11.45;;;12.10;99.90;;;;;;5059554;28;20101;-91
2022/10/25 05:49:09;;;;;;;19.73;10.52;;;12.20;99.90;;;;;;5040890;28;20499;-88
2022/10/25 05:51:35;;;;;;;22.88;11.00;;;12.10;99.90;;;;;;5043659;28;20040;-88
2022/10/25 05:54:06;;;;;;;19.30;11.15;;;12.20;99.90;;;;;;5057208;28;20032;-88
2022/10/25 05:56:33;;;;;;;20.13;11.15;;;12.20;99.90;;;;;;5060735;28;20075;-89
2022/10/25 05:59:08;;;;;;;20.40;11.07;;;12.20;99.90;;;;;;5036985;28;20440;-89
2022/10/25 06:01:35;;;;;;;23.92;11.57;;;12.20;99.90;;;;;;5055888;28;20123;-87
2022/10/25 06:04:01;;;;;;;22.88;11.75;;;12.10;99.90;;;;;;5055817;28;20045;-87
2022/10/25 06:06:27;;;;;;;22.20;11.57;;;12.20;99.90;;;;;;4673670;22;20895;-54
2022/10/25 06:08:57;;;;;;;25.10;13.85;;;12.10;99.90;;;;;;5091693;22;20139;-50
2022/10/25 06:11:23;;;;;;;28.05;12.25;;;12.20;99.90;;;;;;5084506;28;20476;-52
2022/10/25 06:13:49;;;;;;;24.40;12.00;;;12.10;99.90;;;;;;5083808;28;20143;-50
2022/10/25 06:16:17;;;;;;;27.08;13.20;;;12.10;99.90;;;;;;5082736;28;20036;-50
2022/10/25 06:18:43;;;;;;;;;;;12.10;99.90;;;;;;5085625;28;20036;-49
2022/10/25 06:21:23;;;;;;;25.25;12.55;;;12.10;99.90;;;;;;5085922;28;20019;-49
2022/10/25 06:23:50;;;;;;;26.70;12.65;;;12.10;99.90;;;;;;5084917;28;20048;-53
2022/10/25 06:26:18;;;;;;;23.48;12.45;;;12.00;99.90;;;;;;5081869;28;20134;-49
2022/10/25 06:28:44;;;;;;;;;;;12.00;99.90;;;;;;5081616;28;20583;-50
2022/10/25 06:31:13;;;;;;;26.75;11.80;;;12.10;99.90;;;;;;5086981;28;20006;-51
2022/10/25 06:33:39;;;;;;;28.10;13.40;;;12.10;99.90;;;;;;5083922;28;20036;-50
2022/10/25 06:36:07;;;;;;;30.38;13.32;;;12.00;99.90;;;;;;5087319;28;20048;-53
2022/10/25 06:38:33;;;;;;;32.67;13.18;;;12.10;99.90;;;;;;5086821;28;20058;-50
2022/10/25 06:41:06;;;;;;;31.25;13.30;;;12.20;99.90;;;;;;5085749;28;20113;-53
2022/10/25 06:43:33;;;;;;;30.30;13.63;;;12.30;99.90;;;;;;5089301;28;20040;-52
2022/10/25 06:46:05;;;;;;;30.90;13.73;;;12.40;99.90;;;;;;5088417;28;20047;-50
2022/10/25 06:48:31;;;;;;;26.25;13.20;;;12.40;99.90;;;;;;5090243;28;20040;-52
2022/10/25 06:51:03;;;;;;;22.02;12.20;;;12.50;99.90;;;;;;5091032;28;20089;-50
2022/10/25 06:53:28;;;;;;;26.30;12.90;;;12.50;99.90;;;;;;5084654;28;20062;-51
2022/10/25 06:56:02;;;;;;;23.30;12.40;;;12.50;99.90;;;;;;5082110;28;20040;-51
2022/10/25 06:58:32;;;;;;;22.17;11.68;;;12.50;99.90;;;;;;5083628;28;20450;-51
2022/10/25 07:01:12;;;;;;;27.80;13.20;;;12.50;99.90;;;;;;5085768;28;20309;-49
2022/10/25 07:03:38;;;;;;;24.52;12.77;;;12.60;99.90;;;;;;5086230;28;20039;-49
2022/10/25 07:06:07;;;;;;;28.65;12.48;;;12.50;99.90;;;;;;5086412;28;20137;-54
2022/10/25 07:08:34;;;;;;;23.80;12.07;;;12.50;99.90;;;;;;5084343;28;20124;-49
2022/10/25 07:11:01;;;;;;;27.25;12.07;;;12.50;99.90;;;;;;5083387;28;20059;-49
2022/10/25 07:13:26;;;;;;;27.63;11.75;;;12.50;99.90;;;;;;5084668;28;20086;-54
2022/10/25 07:15:52;;;;;;;24.63;12.27;;;12.50;99.90;;;;;;5083314;28;20063;-50
2022/10/25 07:18:18;;;;;;;20.70;12.25;;;12.60;99.90;;;;;;5085875;28;20046;-49
2022/10/25 07:20:47;;;;;;;25.60;11.90;;;12.70;99.90;;;;;;5095539;28;20119;-53
2022/10/25 07:23:16;;;;;;;20.27;11.50;;;12.70;99.90;;;;;;5088581;28;20041;-51
2022/10/25 07:25:42;;;;;;;24.25;12.18;;;12.80;99.90;;;;;;5095140;28;20047;-50
2022/10/25 07:28:08;;;;;;;26.58;11.45;;;12.70;99.90;;;;;;5092402;28;20036;-50
2022/10/25 07:30:34;;;;;;;25.25;11.77;;;12.90;99.90;;;;;;5094032;28;20040;-52
2022/10/25 07:33:01;;;;;;;24.17;11.98;;;13.10;99.90;;;;;;5093462;28;20047;-50
2022/10/25 07:35:27;;;;;;;22.67;10.93;;;13.00;99.90;;;;;;5094453;28;20052;-50
2022/10/25 07:37:53;;;;;;;28.88;11.02;;;13.10;99.90;;;;;;5092224;28;20126;-50
2022/10/25 07:40:18;;;;;;;26.05;11.77;;;13.30;99.90;;;;;;5090728;28;20047;-50
2022/10/25 07:42:44;;;;;;;22.42;12.02;;;13.40;99.90;;;;;;5092404;28;20036;-53
2022/10/25 07:45:10;;;;;;;24.77;11.60;;;13.40;99.90;;;;;;5092297;28;20036;-50
2022/10/25 07:47:35;;;;;;;30.23;11.88;;;13.50;99.90;;;;;;5090913;28;20044;-51
2022/10/25 07:50:01;;;;;;;25.88;11.85;;;13.50;99.90;;;;;;5094818;28;20043;-53
2022/10/25 07:52:26;;;;;;;17.83;11.45;;;13.70;99.90;;;;;;5095553;28;20089;-52
2022/10/25 07:54:52;;;;;;;22.17;11.85;;;13.80;99.90;;;;;;5090930;28;20053;-52
2022/10/25 07:57:17;;;;;;;19.77;11.25;;;13.80;99.90;;;;;;5090210;28;20042;-50
2022/10/25 07:59:43;;;;;;;19.63;11.60;;;13.90;99.90;;;;;;5095433;28;20373;-52
2022/10/25 08:02:12;;;;;;;23.80;12.35;;;13.80;99.90;;;;;;5093709;28;20047;-50
2022/10/25 08:04:38;;;;;;;23.63;12.15;;;13.80;99.90;;;;;;5090320;28;20139;-49
2022/10/25 08:07:04;;;;;;;18.15;11.20;;;14.00;99.90;;;;;;5093535;28;20036;-54
2022/10/25 08:09:29;;;;;;;20.30;11.90;;;14.00;99.90;;;;;;5089492;28;21494;-51
2022/10/25 08:11:55;;;;;;;17.42;11.23;;;14.10;99.90;;;;;;5091937;28;20135;-51
2022/10/25 08:14:20;;;;;;;16.88;10.68;;;14.10;99.90;;;;;;5090768;28;20036;-50
2022/10/25 08:16:46;;;;;;;16.98;10.65;;;14.10;99.90;;;;;;5092905;28;20093;-50
2022/10/25 08:19:11;;;;;;;13.70;10.32;;;14.10;99.90;;;;;;5092894;28;20036;-51
2022/10/25 08:21:37;;;;;;;16.33;11.20;;;14.10;99.90;;;;;;5092247;28;20473;-49
2022/10/25 08:24:03;;;;;;;18.48;11.18;;;14.10;99.90;;;;;;5093182;28;20036;-49
2022/10/25 08:26:28;;;;;;;16.55;10.90;;;14.20;99.90;;;;;;5088040;28;20045;-53
2022/10/25 08:28:54;;;;;;;17.48;11.60;;;14.30;99.90;;;;;;5084688;28;20040;-51
2022/10/25 08:31:20;;;;;;;20.88;12.15;;;14.30;99.90;;;;;;5083737;28;20133;-55
2022/10/25 08:33:46;;;;;;;18.63;10.57;;;14.40;99.90;;;;;;5089142;28;20042;-51
2022/10/25 08:36:12;;;;;;;19.52;10.85;;;14.30;99.90;;;;;;5085398;28;20438;-53
2022/10/25 08:38:37;;;;;;;24.52;11.93;;;14.30;99.90;;;;;;5086678;28;20115;-51
2022/10/25 08:41:08;;;;;;;18.85;11.27;;;14.40;99.90;;;;;;5080876;28;20138;-51
2022/10/25 08:44:08;;;;;;;19.20;11.38;;;14.30;99.90;;;;;;5084122;28;20044;-54
2022/10/25 08:46:54;;;;;;;18.13;11.30;;;14.30;99.90;;;;;;5087831;28;20397;-50
2022/10/25 08:49:25;;;;;;;23.58;11.52;;;14.30;99.90;;;;;;5089321;28;20040;-52
2022/10/25 08:51:52;;;;;;;19.02;11.45;;;14.30;99.90;;;;;;5092686;28;20526;-51
2022/10/25 08:54:42;;;;;;;19.02;11.50;;;14.40;99.90;;;;;;5093166;28;20180;-50
2022/10/25 08:57:23;;;;;;;18.58;11.60;;;14.40;99.90;;;;;;5068268;28;20084;-51
2022/10/25 08:59:59;;;;;;;19.05;11.10;;;14.40;99.90;;;;;;5091698;28;20048;-50
2022/10/25 09:02:43;;;;;;;23.85;11.75;;;14.40;99.90;;;;;;5084378;28;20408;-51
2022/10/25 09:05:36;;;;;;;17.50;11.15;;;14.40;99.90;;;;;;5086533;28;20075;-54
2022/10/25 09:08:07;;;;;;;19.80;12.10;;;14.40;99.90;;;;;;5070908;28;20058;-52
2022/10/25 09:10:51;;;;;;;18.08;11.98;;;14.30;99.90;;;;;;5088430;28;20036;-53
2022/10/25 09:13:27;;;;;;;19.33;12.18;;;14.40;99.90;;;;;;5085606;28;20461;-50
2022/10/25 09:16:04;;;;;;;21.08;12.27;;;14.50;99.90;;;;;;5084410;28;20044;-53
2022/10/25 09:18:51;;;;;;;18.75;11.82;;;14.70;99.90;;;;;;5084393;28;20036;-50
2022/10/25 09:22:01;;;;;;;14.60;10.75;;;14.70;99.90;;;;;;5084319;28;20040;-49
2022/10/25 09:24:47;;;;;;;16.92;10.48;;;15.00;99.90;;;;;;5077215;28;20469;-50
2022/10/25 09:27:16;;;;;;;13.38;8.93;;;15.10;99.90;;;;;;5088021;28;20396;-49
2022/10/25 09:29:59;;;;;;;16.95;8.55;;;15.10;99.90;;;;;;5093152;28;20079;-50
2022/10/25 09:32:49;;;;;;;14.05;7.68;;;15.10;99.90;;;;;;5091680;28;20396;-50
2022/10/25 09:35:31;;;;;;;12.02;7.85;;;15.30;99.90;;;;;;5093102;28;20079;-50
2022/10/25 09:38:07;;;;;;;13.18;7.95;;;15.30;99.90;;;;;;5086543;28;20048;-51
2022/10/25 09:40:46;;;;;;;12.77;7.28;;;15.40;99.90;;;;;;5068348;28;20051;-50
2022/10/25 09:43:17;;;;;;;14.35;7.55;;;15.50;99.90;;;;;;5082631;28;20071;-52
2022/10/25 09:45:47;;;;;;;12.40;7.40;;;15.40;99.90;;;;;;5084836;28;20062;-51
2022/10/25 09:48:27;;;;;;;12.00;6.90;;;15.50;99.90;;;;;;5083148;28;20047;-51
2022/10/25 09:51:13;;;;;;;10.63;5.90;;;15.40;99.90;;;;;;5084681;28;20204;-53
2022/10/25 09:53:42;;;;;;;14.25;6.35;;;15.40;99.90;;;;;;5084013;28;20503;-52
2022/10/25 09:56:08;;;;;;;9.60;5.82;;;15.40;99.90;;;;;;5080414;28;20108;-53
2022/10/25 09:58:46;;;;;;;11.98;6.10;;;15.30;99.90;;;;;;5083614;28;20690;-51
2022/10/25 10:01:27;;;;;;;12.35;6.05;;;15.50;99.90;;;;;;5082115;28;20046;-51
2022/10/25 10:04:15;;;;;;;10.60;5.72;;;15.80;99.90;;;;;;5082584;28;20044;-50
2022/10/25 10:06:40;;;;;;;8.10;5.10;;;15.80;99.90;;;;;;5085135;28;20040;-54
2022/10/25 10:09:10;;;;;;;13.63;5.65;;;15.70;99.90;;;;;;5087657;28;20500;-54
2022/10/25 10:11:37;;;;;;;9.30;5.40;;;15.90;99.90;;;;;;5088931;28;20024;-51
2022/10/25 10:14:40;;;;;;;10.23;5.55;;;16.00;99.90;;;;;;5085401;28;20048;-52
2022/10/25 10:17:12;;;;;;;10.55;5.68;;;16.00;99.90;;;;;;5087168;28;20052;-51
2022/10/25 10:19:39;;;;;;;8.57;5.22;;;15.90;99.90;;;;;;5091062;28;20085;-51
2022/10/25 10:22:14;;;;;;;6.53;4.53;;;15.80;99.90;;;;;;5091754;28;21375;-50
2022/10/25 10:24:42;;;;;;;9.15;4.55;;;15.70;99.90;;;;;;5083261;28;20476;-48
2022/10/25 10:27:23;;;;;;;7.28;4.35;;;15.60;99.90;;;;;;5086974;28;20055;-50
2022/10/25 10:29:59;;;;;;;10.73;4.75;;;15.40;99.90;;;;;;5087166;28;20725;-51
2022/10/25 10:32:36;;;;;;;12.15;4.95;;;15.40;99.90;;;;;;5087116;28;20040;-50
2022/10/25 10:35:05;;;;;;;12.88;5.28;;;15.40;99.90;;;;;;5086283;28;20075;-49
2022/10/25 10:37:32;;;;;;;12.60;4.72;;;15.60;99.90;;;;;;5085921;28;20051;-49
2022/10/25 10:40:02;;;;;;;9.52;4.53;;;15.70;99.90;;;;;;5084271;28;20576;-49
2022/10/25 10:42:40;;;;;;;7.68;4.50;;;15.80;99.90;;;;;;5086036;28;20048;-48
2022/10/25 10:45:06;;;;;;;8.88;4.50;;;15.80;99.90;;;;;;5084258;28;20182;-48
2022/10/25 10:47:38;;;;;;;14.18;3.90;;;15.70;99.90;;;;;;5087253;28;20052;-51
2022/10/25 10:50:12;;;;;;;6.95;3.50;;;15.60;99.90;;;;;;5087265;28;20040;-51
2022/10/25 10:52:43;;;;;;;11.65;4.22;;;15.70;99.90;;;;;;5085893;28;20416;-50
2022/10/25 10:55:27;;;;;;;12.50;3.97;;;15.90;99.90;;;;;;5081762;28;20131;-48
2022/10/25 10:57:54;;;;;;;10.52;4.10;;;16.10;99.90;;;;;;5085223;28;20040;-52
2022/10/25 11:00:25;;;;;;;12.00;4.03;;;16.10;99.90;;;;;;5084166;28;20207;-48
2022/10/25 11:02:51;;;;;;;8.05;4.00;;;;;;;;;;5084424;28;20158;-49
2022/10/25 11:05:21;;;;;;;5.80;2.83;;;16.30;99.90;;;;;;5086185;28;20081;-51
2022/10/25 11:07:55;;;;;;;9.10;3.10;;;;;;;;;;5085287;28;20152;-50
2022/10/25 11:10:24;;;;;;;11.57;3.40;;;16.50;99.90;;;;;;5083171;28;20109;-50
2022/10/25 11:13:16;;;;;;;7.18;3.85;;;16.60;99.90;;;;;;5087343;28;20044;-51
2022/10/25 11:15:59;;;;;;;8.23;3.40;;;16.50;99.90;;;;;;5091546;28;20146;-49
2022/10/25 11:18:44;;;;;;;8.02;2.92;;;16.60;99.90;;;;;;5086310;28;20038;-51
2022/10/25 11:21:38;;;;;;;10.40;3.20;;;16.70;99.90;;;;;;5100492;28;20048;-52
2022/10/25 11:24:28;;;;;;;6.47;3.40;;;16.60;99.90;;;;;;5090268;28;20092;-50
2022/10/25 11:27:38;;;;;;;9.32;3.58;;;16.50;99.90;;;;;;5088777;28;20547;-51
2022/10/25 11:30:15;;;;;;;9.15;3.38;;;16.60;99.90;;;;;;5014635;28;20049;-48
2022/10/25 11:33:21;;;;;;;5.53;3.10;;;16.70;99.90;;;;;;5022828;28;20077;-51
2022/10/25 11:36:22;;;;;;;18.00;3.38;;;16.70;99.90;;;;;;5026919;28;20050;-51
2022/10/25 11:39:18;;;;;;;10.05;2.80;;;16.70;99.90;;;;;;5010271;28;20068;-48
2022/10/25 11:41:49;;;;;;;8.20;2.90;;;17.00;99.90;;;;;;5017898;28;20049;-48
2022/10/25 11:45:03;;;;;;;10.60;2.97;;;17.20;99.90;;;;;;5011840;28;20050;-49
2022/10/25 11:47:39;;;;;;;7.30;3.03;;;17.30;99.90;;;;;;5014224;28;20088;-49
2022/10/25 11:50:17;;;;;;;6.27;3.00;;;17.20;99.90;;;;;;5010476;28;20523;-48
2022/10/25 11:52:50;;;;;;;7.18;2.70;;;17.30;99.90;;;;;;5020591;28;20057;-51
2022/10/25 11:55:33;;;;;;;8.90;3.05;;;17.20;99.90;;;;;;5019599;28;20051;-52
2022/10/25 11:58:05;;;;;;;8.30;3.03;;;17.30;99.90;;;;;;5018034;28;20119;-52
2022/10/25 12:00:58;;;;;;;8.65;3.28;;;17.20;99.90;;;;;;5019841;28;20061;-49
2022/10/25 12:03:36;;;;;;;6.10;2.90;;;17.10;99.90;;;;;;5017883;28;20044;-51
2022/10/25 12:06:05;;;;;;;;;;;17.10;99.90;;;;;;5040248;28;21470;-52
2022/10/25 12:08:48;;;;;;;7.10;2.70;;;17.10;99.90;;;;;;5084486;28;19988;-52
2022/10/25 12:11:19;;;;;;;9.27;2.63;;;17.00;99.90;;;;;;5089752;28;20063;-50
2022/10/25 12:13:50;;;;;;;5.57;2.55;;;17.10;99.90;;;;;;5088968;28;21124;-52
2022/10/25 12:16:19;;;;;;;3.88;2.42;;;17.20;99.90;;;;;;5084627;28;20396;-49
2022/10/25 12:18:48;;;;;;;8.40;2.78;;;17.30;99.90;;;;;;5086757;28;20042;-52
2022/10/25 12:21:19;;;;;;;6.30;2.80;;;17.30;99.90;;;;;;5088008;28;20036;-49
2022/10/25 12:23:50;;;;;;;4.20;2.15;;;17.50;99.90;;;;;;5085554;28;20036;-52
2022/10/25 12:26:33;;;;;;;7.15;2.65;;;17.60;99.90;;;;;;5085529;28;20032;-50
2022/10/25 12:29:04;;;;;;;9.07;3.13;;;17.80;99.90;;;;;;5082778;28;20113;-50
2022/10/25 12:31:39;;;;;;;9.75;3.15;;;18.10;99.90;;;;;;5083155;28;20036;-49
2022/10/25 12:34:43;;;;;;;17.23;3.53;;;18.10;99.90;;;;;;5085617;28;20123;-48
2022/10/25 12:37:36;;;;;;;7.30;2.97;;;18.10;99.90;;;;;;5081156;28;20492;-49
2022/10/25 12:40:04;;;;;;;7.40;2.78;;;18.00;99.90;;;;;;5084274;28;20852;-50
2022/10/25 12:42:45;;;;;;;6.88;2.88;;;17.80;99.90;;;;;;5081442;28;20153;-49
2022/10/25 12:45:16;;;;;;;6.53;2.60;;;17.70;99.90;;;;;;5083681;28;20040;-52
2022/10/25 12:48:20;;;;;;;6.43;2.63;;;17.70;99.90;;;;;;5083099;28;20085;-50
2022/10/25 12:51:09;;;;;;;6.45;2.58;;;17.80;99.90;;;;;;5027182;28;20048;-50
2022/10/25 12:53:41;;;;;;;12.05;2.80;;;17.80;99.90;;;;;;5030420;28;20061;-48
2022/10/25 12:56:18;;;;;;;7.10;2.55;;;17.50;99.90;;;;;;5031474;28;20100;-48
2022/10/25 12:59:05;;;;;;;7.53;3.22;;;17.40;99.90;;;;;;5030889;28;20521;-49